Time;durP1;ratioP1;P1;durP2;ratioP2;P2;SDS_P1;SDS_P2;PMS_P1;PMS_P2;Temp;Humidity;BMP_temperature;BMP_pressure;BME280_temperature;BME280_humidity;BME280_pressure;Samples;Min_cycle;Max_cycle;Signal;HPM_P1;HPM_P2
2023/01/15 00:01:05;;;;;;;;;0.00;0.00;;;;;21.35;46.54;100342.84;5077154;28;45341;-73
2023/01/15 00:03:31;;;;;;;;;0.00;0.00;;;;;21.40;46.48;100351.84;5077060;27;45337;-73
2023/01/15 00:06:01;;;;;;;;;0.00;0.00;;;;;21.39;46.46;100360.00;5077429;27;45397;-73
2023/01/15 00:08:27;;;;;;;;;0.00;0.00;;;;;21.39;46.66;100360.78;5076731;28;45331;-73
2023/01/15 00:10:52;;;;;;;;;0.00;0.00;;;;;21.38;46.81;100363.63;5077335;28;45297;-73
2023/01/15 00:13:17;;;;;;;;;1.00;0.00;;;;;21.36;46.73;100361.19;5077497;28;45340;-73
2023/01/15 00:15:43;;;;;;;;;0.00;0.00;;;;;21.37;46.80;100361.97;5077161;28;45435;-73
2023/01/15 00:18:09;;;;;;;;;0.00;0.00;;;;;21.36;46.28;100355.06;5077221;28;45316;-73
2023/01/15 00:20:34;;;;;;;;;1.00;1.00;;;;;21.26;46.21;100344.78;5077187;28;45365;-73
2023/01/15 00:22:59;;;;;;;;;0.33;0.00;;;;;21.33;46.43;100350.97;5076920;28;45290;-74
2023/01/15 00:28:13;;;;;;;;;0.00;0.00;;;;;21.28;46.90;100338.31;5076853;28;45436;-73
2023/01/15 00:30:40;;;;;;;;;0.00;0.00;;;;;21.31;46.21;100333.63;5077073;28;45325;-73
2023/01/15 00:33:06;;;;;;;;;0.00;0.00;;;;;21.31;46.40;100329.19;5076802;28;45445;-72
2023/01/15 00:35:31;;;;;;;;;0.00;0.00;;;;;21.27;46.33;100327.91;5076245;28;46147;-73
2023/01/15 00:37:56;;;;;;;;;0.00;0.00;;;;;21.29;46.64;100334.63;5092628;27;45459;-73
2023/01/15 00:40:22;;;;;;;;;0.00;0.00;;;;;21.31;46.74;100337.13;5076633;27;45346;-73
2023/01/15 00:42:47;;;;;;;;;0.33;0.33;;;;;21.31;46.33;100331.81;5076831;27;45427;-73
2023/01/15 00:45:13;;;;;;;;;1.00;0.00;;;;;21.21;46.72;100310.94;5076397;28;46251;-73
2023/01/15 00:47:40;;;;;;;;;0.00;0.00;;;;;21.32;46.62;100319.38;5076589;28;45381;-73
2023/01/15 00:50:09;;;;;;;;;0.00;0.00;;;;;21.33;46.07;100328.97;5076463;28;45418;-73
2023/01/15 00:52:35;;;;;;;;;0.00;0.00;;;;;21.32;46.25;100324.69;5076706;28;45367;-73
2023/01/15 00:55:00;;;;;;;;;0.00;0.00;;;;;21.33;45.98;100326.31;5076431;28;46141;-74
2023/01/15 00:57:25;;;;;;;;;0.00;0.00;;;;;21.19;46.09;100315.59;5076618;28;45332;-73
2023/01/15 00:59:51;;;;;;;;;0.00;0.00;;;;;21.31;46.25;100331.00;5076500;28;45388;-73
2023/01/15 01:02:16;;;;;;;;;1.00;0.00;;;;;21.31;46.15;100336.28;5076368;28;45312;-73
2023/01/15 01:04:42;;;;;;;;;0.00;0.00;;;;;21.24;46.53;100320.31;5075905;28;46271;-73
2023/01/15 01:07:07;;;;;;;;;0.00;0.00;;;;;21.26;46.38;100324.41;5076532;28;45337;-73
2023/01/15 01:09:33;;;;;;;;;0.00;0.00;;;;;21.29;46.28;100324.06;5076185;28;45352;-73
2023/01/15 01:11:58;;;;;;;;;0.00;0.00;;;;;21.27;46.49;100326.06;5076362;28;45280;-73
2023/01/15 01:14:23;;;;;;;;;2.00;0.00;;;;;21.29;46.58;100336.47;5076231;28;46129;-73
2023/01/15 01:16:49;;;;;;;;;0.00;0.00;;;;;21.23;46.10;100329.28;5076365;28;45258;-73
2023/01/15 01:19:17;;;;;;;;;0.00;0.00;;;;;21.28;46.32;100337.47;5075908;28;45379;-73
2023/01/15 01:21:43;;;;;;;;;0.00;0.00;;;;;21.27;46.19;100328.72;5076419;28;45506;-73
2023/01/15 01:24:11;;;;;;;;;0.67;0.67;;;;;21.27;46.71;100330.53;5075726;28;46419;-73
2023/01/15 01:26:37;;;;;;;;;1.33;0.00;;;;;21.26;46.36;100340.28;5075921;28;45376;-73
2023/01/15 01:29:03;;;;;;;;;0.00;0.00;;;;;21.25;46.36;100343.97;5076312;28;45293;-73
2023/01/15 01:31:28;;;;;;;;;0.33;0.33;;;;;21.25;46.22;100351.06;5076211;28;45315;-73
2023/01/15 01:33:55;;;;;;;;;0.00;0.00;;;;;21.26;46.65;100360.66;5057369;28;46403;-73
2023/01/15 01:36:29;;;;;;;;;0.00;0.00;;;;;21.24;45.89;100347.59;5075928;28;45352;-73
2023/01/15 01:38:55;;;;;;;;;1.33;0.00;;;;;21.22;46.27;100348.81;5076079;28;45328;-73
2023/01/15 01:41:21;;;;;;;;;0.00;0.00;;;;;21.23;46.17;100355.75;5079768;27;45387;-73
2023/01/15 01:43:51;;;;;;;;;0.00;0.00;;;;;21.21;46.38;100366.50;5079420;28;46196;-73
2023/01/15 01:46:16;;;;;;;;;1.00;0.00;;;;;21.21;45.91;100377.06;5079442;28;45426;-73
2023/01/15 01:48:42;;;;;;;;;0.00;0.00;;;;;21.22;46.49;100369.97;5079273;28;45339;-73
2023/01/15 01:51:07;;;;;;;;;0.00;0.00;;;;;21.21;46.33;100365.69;5079548;28;45442;-73
2023/01/15 01:53:33;;;;;;;;;0.00;0.00;;;;;21.15;46.10;100369.91;5079367;27;45916;-73
2023/01/15 01:55:59;;;;;;;;;0.00;0.00;;;;;21.21;46.39;100379.72;5079147;27;45335;-73
2023/01/15 01:58:28;;;;;;;;;0.00;0.00;;;;;21.19;46.17;100381.75;5079413;28;45484;-73
2023/01/15 02:00:54;;;;;;;;;1.00;0.00;;;;;21.19;46.15;100376.44;5079529;28;45365;-73
2023/01/15 02:03:25;;;;;;;;;0.00;0.00;;;;;21.21;46.08;100385.00;5078531;28;47295;-73
2023/01/15 02:05:57;;;;;;;;;0.00;0.00;;;;;21.22;46.63;100377.91;5079245;28;45312;-73
2023/01/15 02:08:23;;;;;;;;;1.00;0.00;;;;;21.20;46.14;100362.22;5079146;28;45320;-73
2023/01/15 02:10:52;;;;;;;;;1.00;0.00;;;;;21.22;45.98;100372.59;5079113;27;45297;-73
2023/01/15 02:13:40;;;;;;;;;0.00;0.00;;;;;21.23;46.33;100376.91;5079318;28;45300;-73
2023/01/15 02:16:15;;;;;;;;;0.67;0.00;;;;;21.22;46.33;100375.25;5060815;28;45343;-73
2023/01/15 02:18:58;;;;;;;;;0.00;0.00;;;;;21.21;45.81;100385.00;5078700;28;45409;-73
2023/01/15 02:22:06;;;;;;;;;0.00;0.00;;;;;21.24;46.03;100389.13;5079077;28;45477;-73
2023/01/15 02:24:49;;;;;;;;;0.00;0.00;;;;;21.23;46.17;100392.78;4995128;28;46148;-73
2023/01/15 02:27:19;;;;;;;;;0.67;0.00;;;;;21.22;46.39;100405.19;4996328;28;45590;-73
2023/01/15 02:30:01;;;;;;;;;0.00;0.00;;;;;21.22;46.14;100397.25;4996471;28;45355;-73
2023/01/15 02:32:39;;;;;;;;;0.00;0.00;;;;;21.19;46.20;100392.31;4996191;28;45363;-73
2023/01/15 02:35:32;;;;;;;;;1.00;0.00;;;;;21.21;45.66;100386.88;4996323;28;45396;-73
2023/01/15 02:38:02;;;;;;;;;0.00;0.00;;;;;21.20;46.21;100383.38;4988966;28;45441;-73
2023/01/15 02:40:30;;;;;;;;;0.00;0.00;;;;;21.09;46.33;100363.53;4996519;28;45410;-73
2023/01/15 02:42:57;;;;;;;;;1.33;1.00;;;;;21.18;45.84;100383.56;4996181;28;45388;-73
2023/01/15 02:45:32;;;;;;;;;1.00;0.00;;;;;21.18;45.98;100407.38;4996037;28;45998;-73
2023/01/15 02:48:04;;;;;;;;;0.00;0.00;;;;;21.17;46.06;100397.81;4995823;28;45412;-73
2023/01/15 02:50:37;;;;;;;;;0.00;0.00;;;;;21.17;46.23;100396.97;4995511;28;45407;-73
2023/01/15 02:53:08;;;;;;;;;0.00;0.00;;;;;21.18;46.26;100415.31;4995619;28;45366;-73
2023/01/15 02:55:43;;;;;;;;;0.00;0.00;;;;;21.18;46.08;100411.88;4995632;28;47050;-73
2023/01/15 02:58:13;;;;;;;;;0.00;0.00;;;;;21.17;45.88;100407.56;4995927;28;45388;-73
2023/01/15 03:00:43;;;;;;;;;0.00;0.00;;;;;21.16;46.12;100403.28;5004226;28;45517;-73
2023/01/15 03:03:15;;;;;;;;;1.00;1.00;;;;;21.15;46.08;100391.06;5057924;28;45451;-73
2023/01/15 03:05:59;;;;;;;;;0.00;0.00;;;;;21.15;45.89;100388.41;5057780;28;46167;-73
2023/01/15 03:08:24;;;;;;;;;0.00;0.00;;;;;21.14;46.05;100387.59;5057972;28;45409;-73
2023/01/15 03:11:06;;;;;;;;;1.00;0.00;;;;;21.12;46.03;100389.59;5058018;28;45380;-73
2023/01/15 03:13:41;;;;;;;;;1.00;0.00;;;;;21.14;46.11;100397.34;5058054;28;45291;-73
2023/01/15 03:16:33;;;;;;;;;0.00;0.00;;;;;21.14;46.04;100389.41;5057413;28;46050;-73
2023/01/15 03:19:21;;;;;;;;;0.00;0.00;;;;;21.13;45.81;100404.47;5057038;28;45369;-73
2023/01/15 03:21:52;;;;;;;;;0.00;0.00;;;;;21.13;45.77;100403.66;5057837;28;45388;-73
2023/01/15 03:24:28;;;;;;;;;0.00;0.00;;;;;21.12;46.18;100424.00;5062561;28;45328;-73
2023/01/15 03:26:53;;;;;;;;;0.00;0.00;;;;;21.13;45.57;100427.47;5077702;28;46254;-73
2023/01/15 03:29:21;;;;;;;;;0.00;0.00;;;;;21.13;45.61;100440.69;5077548;27;45317;-73
2023/01/15 03:31:48;;;;;;;;;0.00;0.00;;;;;21.12;45.86;100447.81;5078021;28;45323;-73
2023/01/15 03:34:14;;;;;;;;;0.00;0.00;;;;;21.13;45.92;100454.72;5077908;28;45537;-73
2023/01/15 03:36:40;;;;;;;;;0.00;0.00;;;;;21.14;46.08;100442.31;5077645;28;47124;-73
2023/01/15 03:39:05;;;;;;;;;0.00;0.00;;;;;21.14;45.78;100429.91;5077607;27;45467;-73
2023/01/15 03:41:46;;;;;;;;;0.00;0.00;;;;;21.16;45.97;100458.81;5077876;28;45309;-73
2023/01/15 03:44:34;;;;;;;;;0.33;0.00;;;;;21.16;45.64;100464.13;5077626;27;45389;-73
2023/01/15 03:47:12;;;;;;;;;0.00;0.00;;;;;21.16;46.02;100459.66;5077536;27;45329;-73
2023/01/15 03:50:03;;;;;;;;;2.00;1.00;;;;;21.17;45.59;100468.41;5077526;28;45499;-73
2023/01/15 03:52:30;;;;;;;;;1.00;0.00;;;;;21.17;45.92;100501.00;5015019;28;45458;-73
2023/01/15 03:55:20;;;;;;;;;0.00;0.00;;;;;21.17;45.99;100486.94;5014942;28;45391;-73
2023/01/15 03:57:57;;;;;;;;;1.00;0.00;;;;;21.18;45.77;100475.34;5014743;28;47417;-73
2023/01/15 04:00:27;;;;;;;;;0.00;0.00;;;;;21.17;45.48;100479.00;5014323;28;45363;-74
2023/01/15 04:02:55;;;;;;;;;0.67;0.00;;;;;21.18;46.02;100488.59;5014141;28;45457;-73
2023/01/15 04:05:21;;;;;;;;;0.00;0.00;;;;;21.16;45.71;100478.16;5014650;28;45460;-73
2023/01/15 04:07:49;;;;;;;;;0.00;0.00;;;;;21.06;45.39;100456.47;5014748;28;45405;-73
2023/01/15 04:10:14;;;;;;;;;0.00;0.00;;;;;21.16;45.67;100469.41;5014808;28;45511;-73
2023/01/15 04:12:40;;;;;;;;;0.00;0.00;;;;;21.14;45.79;100472.25;5014709;28;45393;-73
2023/01/15 04:15:06;;;;;;;;;0.00;0.00;;;;;21.15;45.46;100478.38;5014547;28;45519;-73
2023/01/15 04:17:31;;;;;;;;;0.00;0.00;;;;;21.11;45.67;100472.59;5014630;28;47100;-73
2023/01/15 04:19:56;;;;;;;;;0.00;0.00;;;;;21.15;45.48;100507.47;5014466;28;45422;-73
2023/01/15 04:22:22;;;;;;;;;0.00;0.00;;;;;21.13;45.67;100518.22;5014804;28;45432;-73
2023/01/15 04:24:47;;;;;;;;;0.00;0.00;;;;;21.13;45.03;100536.72;5023269;28;45345;-73
2023/01/15 04:27:12;;;;;;;;;0.00;0.00;;;;;21.10;45.69;100525.72;5034414;28;46504;-73
2023/01/15 04:29:37;;;;;;;;;0.00;0.00;;;;;21.06;45.79;100507.53;5046494;28;45321;-73
2023/01/15 04:32:03;;;;;;;;;0.00;0.00;;;;;21.12;45.65;100499.88;5056822;28;45395;-73
2023/01/15 04:34:28;;;;;;;;;0.00;0.00;;;;;21.11;45.80;100463.84;5056649;28;45346;-73
2023/01/15 04:36:55;;;;;;;;;0.00;0.00;;;;;21.11;45.48;100464.66;5056522;28;46134;-73
2023/01/15 04:39:20;;;;;;;;;0.00;0.00;;;;;21.10;45.87;100464.88;5056639;28;45337;-73
2023/01/15 04:44:32;;;;;;;;;1.00;0.00;;;;;21.10;45.37;100460.41;5056579;28;45379;-73
2023/01/15 04:46:58;;;;;;;;;0.00;0.00;;;;;21.10;45.69;100473.63;5056320;28;46500;-73
2023/01/15 04:49:25;;;;;;;;;0.00;0.00;;;;;21.10;45.63;100472.81;5056207;28;45287;-73
2023/01/15 04:51:50;;;;;;;;;0.00;0.00;;;;;21.04;45.52;100475.16;5056640;28;45462;-73
2023/01/15 04:54:16;;;;;;;;;0.00;0.00;;;;;21.06;45.18;100467.88;5056196;28;45443;-73
2023/01/15 04:56:45;;;;;;;;;0.00;0.00;;;;;21.08;45.27;100475.63;5073161;27;45362;-73
2023/01/15 04:59:10;;;;;;;;;0.00;0.00;;;;;21.06;45.59;100475.81;5076396;28;45268;-74
2023/01/15 05:01:36;;;;;;;;;0.00;0.00;;;;;21.06;45.59;100472.34;5076447;28;45285;-73
2023/01/15 05:04:02;;;;;;;;;0.00;0.00;;;;;21.05;45.39;100466.22;5076568;28;45369;-73
2023/01/15 05:06:30;;;;;;;;;0.00;0.00;;;;;21.05;45.29;100463.56;5076430;28;46149;-73
2023/01/15 05:08:55;;;;;;;;;0.00;0.00;;;;;21.05;45.53;100473.34;5076427;28;45453;-73
2023/01/15 05:11:20;;;;;;;;;0.00;0.00;;;;;21.00;45.78;100455.34;5075972;28;45328;-73
2023/01/15 05:13:46;;;;;;;;;0.67;0.00;;;;;21.05;45.53;100463.56;5075605;28;45426;-73
2023/01/15 05:16:16;;;;;;;;;0.00;0.00;;;;;21.05;45.33;100468.88;5076342;28;45398;-73
2023/01/15 05:18:44;;;;;;;;;0.00;0.00;;;;;21.06;45.28;100459.94;5076209;27;46483;-74
2023/01/15 05:21:30;;;;;;;;;0.00;0.00;;;;;21.07;45.76;100455.47;5076455;28;45471;-73
2023/01/15 05:23:57;;;;;;;;;0.00;0.00;;;;;21.08;45.66;100461.59;5075750;28;45292;-73
2023/01/15 05:26:24;;;;;;;;;0.00;0.00;;;;;21.09;45.43;100463.22;5075622;28;46106;-73
2023/01/15 05:28:56;;;;;;;;;0.00;0.00;;;;;21.09;45.66;100458.75;5076119;28;45332;-73
2023/01/15 05:31:23;;;;;;;;;0.00;0.00;;;;;21.09;45.36;100460.56;5076170;28;45419;-73
2023/01/15 05:33:49;;;;;;;;;1.00;0.00;;;;;21.09;45.52;100471.97;5076232;28;45461;-73
2023/01/15 05:36:19;;;;;;;;;0.00;0.00;;;;;21.01;45.05;100456.16;5075651;28;46493;-73
2023/01/15 05:38:44;;;;;;;;;0.00;0.00;;;;;21.11;44.79;100469.97;5075804;28;45469;-73
2023/01/15 05:44:04;;;;;;;;;0.00;0.00;;;;;21.12;45.36;100476.91;5076021;28;45392;-73
2023/01/15 05:46:30;;;;;;;;;0.33;0.00;;;;;21.11;44.77;100483.19;5075639;28;45623;-73
2023/01/15 05:49:04;;;;;;;;;0.00;0.00;;;;;21.11;45.49;100480.53;5075813;28;45311;-73
2023/01/15 05:51:29;;;;;;;;;0.00;0.00;;;;;21.10;44.88;100478.91;5076005;28;45403;-73
2023/01/15 05:53:57;;;;;;;;;0.00;0.00;;;;;21.10;44.94;100489.50;5075756;28;45426;-73
2023/01/15 05:56:23;;;;;;;;;0.33;0.00;;;;;21.11;45.36;100490.28;5075099;27;46008;-73
2023/01/15 05:58:48;;;;;;;;;0.00;0.00;;;;;21.10;45.35;100484.22;5075530;28;45291;-73
2023/01/15 06:01:14;;;;;;;;;0.00;0.00;;;;;21.04;45.31;100491.03;5075609;28;45329;-73
2023/01/15 06:03:40;;;;;;;;;0.00;0.00;;;;;21.09;45.12;100505.53;5075934;28;45325;-73
2023/01/15 06:06:06;;;;;;;;;0.00;0.00;;;;;21.05;45.23;100492.66;5075496;28;46989;-73
2023/01/15 06:08:31;;;;;;;;;0.00;0.00;;;;;20.97;44.93;100498.03;5075369;28;45306;-73
2023/01/15 06:10:56;;;;;;;;;1.00;0.00;;;;;21.07;45.14;100500.44;5075467;28;45397;-73
2023/01/15 06:13:22;;;;;;;;;0.00;0.00;;;;;21.06;45.22;100512.84;5075523;28;45391;-73
2023/01/15 06:15:47;;;;;;;;;0.00;0.00;;;;;21.05;44.90;100510.38;5075584;28;45388;-73
2023/01/15 06:18:12;;;;;;;;;2.00;0.00;;;;;21.04;44.78;100512.22;5075433;28;45279;-73
2023/01/15 06:20:39;;;;;;;;;1.00;0.00;;;;;21.05;45.02;100510.38;5075625;28;45318;-73
2023/01/15 06:23:04;;;;;;;;;0.00;0.00;;;;;20.95;44.76;100506.13;5075615;28;45491;-74
2023/01/15 06:25:36;;;;;;;;;0.00;0.00;;;;;21.04;45.01;100520.13;5074640;28;45518;-73
2023/01/15 06:28:05;;;;;;;;;0.00;0.00;;;;;21.01;45.41;100515.22;5078925;28;45384;-71
2023/01/15 06:30:31;;;;;;;;;0.00;0.00;;;;;21.03;44.99;100518.47;5078881;27;45320;-73
2023/01/15 06:32:56;;;;;;;;;0.00;0.00;;;;;20.94;44.67;100512.44;5079003;28;45391;-73
2023/01/15 06:35:21;;;;;;;;;0.00;0.00;;;;;21.03;45.33;100530.88;5078570;27;46287;-74
2023/01/15 06:37:49;;;;;;;;;0.00;0.00;;;;;21.02;45.16;100538.03;5078215;28;45312;-71
2023/01/15 06:40:16;;;;;;;;;2.33;0.00;;;;;21.02;44.91;100530.09;5079091;28;45163;-73
2023/01/15 06:48:09;;;;;;;;;0.00;0.00;;;;;21.01;44.84;100536.38;5078650;27;45289;-73
2023/01/15 06:50:34;;;;;;;;;0.00;0.00;;;;;20.90;44.57;100523.53;5078599;28;45227;-72
2023/01/15 06:53:00;;;;;;;;;0.00;0.00;;;;;21.00;45.00;100544.47;5078348;27;45285;-73
2023/01/15 06:55:25;;;;;;;;;0.00;0.00;;;;;21.00;45.08;100544.47;5078388;27;45690;-74
2023/01/15 06:57:50;;;;;;;;;0.00;0.00;;;;;21.00;45.01;100555.84;5078505;27;46721;-73
2023/01/15 07:00:16;;;;;;;;;0.00;0.00;;;;;21.00;44.61;100552.41;5078567;28;45322;-74
2023/01/15 07:02:41;;;;;;;;;0.00;0.00;;;;;21.00;44.79;100533.88;5078186;28;45396;-73
2023/01/15 07:05:07;;;;;;;;;0.00;0.00;;;;;21.00;44.90;100544.47;5078145;28;45867;-73
2023/01/15 07:07:33;;;;;;;;;0.00;0.00;;;;;20.90;44.99;100520.91;5077838;28;45359;-73
2023/01/15 07:09:58;;;;;;;;;0.00;0.00;;;;;21.00;44.89;100529.38;5060364;28;45465;-73
2023/01/15 07:12:24;;;;;;;;;0.00;0.00;;;;;21.01;45.04;100544.31;5078201;27;45525;-73
2023/01/15 07:14:50;;;;;;;;;0.00;0.00;;;;;20.94;44.87;100523.03;5078081;28;46179;-73
2023/01/15 07:17:15;;;;;;;;;1.00;0.00;;;;;21.03;44.91;100536.19;5078034;28;45398;-73
2023/01/15 07:19:41;;;;;;;;;0.00;0.00;;;;;21.03;44.94;100536.19;5078328;27;45454;-73
2023/01/15 07:22:08;;;;;;;;;0.00;0.00;;;;;21.03;44.85;100531.72;5059906;28;45399;-73
2023/01/15 07:24:34;;;;;;;;;0.00;0.00;;;;;21.03;44.99;100539.66;5077315;27;47476;-73
2023/01/15 07:26:59;;;;;;;;;0.00;0.00;;;;;21.04;44.86;100535.19;5077406;27;45430;-73
2023/01/15 07:29:24;;;;;;;;;0.00;0.00;;;;;21.06;44.91;100549.03;5077990;28;45817;-73
2023/01/15 07:31:51;;;;;;;;;0.00;0.00;;;;;21.06;44.79;100541.94;5078023;28;45329;-73
2023/01/15 07:34:16;;;;;;;;;0.00;0.00;;;;;20.98;45.09;100533.22;5077639;28;46443;-73
2023/01/15 07:36:42;;;;;;;;;0.00;0.00;;;;;21.03;44.44;100538.81;5058435;28;45310;-73
2023/01/15 07:39:09;;;;;;;;;0.00;0.00;;;;;21.01;44.60;100546.94;5077784;28;45407;-73
2023/01/15 07:49:56;;;;;;;;;0.00;0.00;;;;;21.04;44.59;100573.03;5077562;27;45360;-73
2023/01/15 07:52:21;;;;;;;;;0.00;0.00;;;;;20.98;44.88;100560.50;5077258;28;45360;-73
2023/01/15 07:54:48;;;;;;;;;1.00;0.00;;;;;21.03;44.86;100562.63;5077231;28;46148;-73
2023/01/15 07:57:17;;;;;;;;;0.00;0.00;;;;;21.00;44.77;100557.69;5077334;28;45365;-73
2023/01/15 07:59:43;;;;;;;;;1.00;0.00;;;;;21.01;44.55;100554.88;5077480;28;45316;-73
2023/01/15 08:02:08;;;;;;;;;0.00;0.00;;;;;20.90;44.80;100542.06;5077159;28;45364;-73
2023/01/15 08:04:34;;;;;;;;;0.00;0.00;;;;;20.92;44.65;100546.16;5058779;28;46040;-73
2023/01/15 08:07:01;;;;;;;;;0.00;0.00;;;;;21.01;44.53;100573.41;5077171;27;45363;-73
2023/01/15 08:09:26;;;;;;;;;0.00;0.00;;;;;20.87;38.91;100577.59;5077422;27;45356;-74
2023/01/15 08:17:20;;;;;;;;;0.00;0.00;;;;;20.21;38.65;100557.78;5077251;27;45438;-73
2023/01/15 08:19:45;;;;;;;;;0.00;0.00;;;;;20.22;39.06;100560.25;5077016;28;45241;-73
2023/01/15 08:22:10;;;;;;;;;1.00;0.00;;;;;20.34;39.43;100552.75;5077278;28;45396;-72
2023/01/15 08:24:36;;;;;;;;;1.00;0.00;;;;;20.35;40.04;100559.66;5076553;28;46162;-73
2023/01/15 08:27:02;;;;;;;;;0.00;0.00;;;;;20.43;40.14;100558.78;5077176;28;45347;-70
2023/01/15 08:29:27;;;;;;;;;0.00;0.00;;;;;20.46;40.59;100547.88;5077179;28;45227;-73
2023/01/15 08:31:52;;;;;;;;;0.00;0.00;;;;;20.44;40.87;100549.88;5076939;28;45325;-72
2023/01/15 08:34:18;;;;;;;;;0.00;0.00;;;;;20.51;41.09;100540.25;5076386;27;45297;-73
2023/01/15 08:36:44;;;;;;;;;0.00;0.00;;;;;20.55;41.24;100553.94;5076973;28;45269;-73
2023/01/15 08:39:09;;;;;;;;;0.00;0.00;;;;;20.57;41.54;100551.09;5076873;28;45398;-73
2023/01/15 08:41:35;;;;;;;;;0.67;0.00;;;;;20.58;41.50;100550.13;5076847;28;45508;-73
2023/01/15 08:44:00;;;;;;;;;0.00;0.00;;;;;20.60;41.86;100550.75;5076576;28;45399;-73
2023/01/15 08:46:26;;;;;;;;;0.00;0.00;;;;;20.64;41.23;100565.25;5076729;27;45381;-73
2023/01/15 08:48:52;;;;;;;;;0.00;0.00;;;;;20.66;41.49;100562.44;5076428;28;45254;-73
2023/01/15 08:51:18;;;;;;;;;2.00;0.00;;;;;20.64;41.47;100549.38;5076854;28;45465;-73
2023/01/15 08:53:44;;;;;;;;;0.00;0.00;;;;;20.71;41.21;100557.44;5076457;28;45426;-72
2023/01/15 08:56:15;;;;;;;;;0.00;0.00;;;;;20.73;41.72;100561.56;5076312;27;45439;-73
2023/01/15 08:58:40;;;;;;;;;1.00;0.00;;;;;20.78;41.92;100568.13;5076744;28;45501;-73
2023/01/15 09:01:08;;;;;;;;;1.00;0.00;;;;;20.81;41.76;100578.34;5076258;28;45376;-72
2023/01/15 09:03:35;;;;;;;;;0.00;0.00;;;;;20.81;42.00;100570.41;5075091;28;46385;-74
2023/01/15 09:06:01;;;;;;;;;1.00;0.00;;;;;20.84;41.99;100570.06;5072831;28;45442;-73
2023/01/15 09:08:27;;;;;;;;;0.00;0.00;;;;;20.85;41.68;100576.97;5075858;27;45286;-72
2023/01/15 09:10:57;;;;;;;;;0.00;0.00;;;;;20.87;42.42;100574.16;5076336;27;45284;-72
2023/01/15 09:13:23;;;;;;;;;0.00;0.00;;;;;20.87;41.95;100576.81;5075541;28;46438;-73
2023/01/15 09:15:48;;;;;;;;;1.67;0.00;;;;;20.83;41.99;100579.81;5075872;28;45359;-73
2023/01/15 09:18:17;;;;;;;;;1.33;0.00;;;;;20.88;42.33;100578.44;5075899;27;45444;-72
2023/01/15 09:20:43;;;;;;;;;1.00;0.00;;;;;20.89;42.46;100583.56;5076277;28;45296;-72
2023/01/15 09:23:09;;;;;;;;;0.00;0.00;;;;;20.92;42.53;100588.47;5075879;27;46015;-72
2023/01/15 09:25:34;;;;;;;;;0.00;0.00;;;;;20.93;42.45;100582.19;5075803;28;45546;-72
2023/01/15 09:27:59;;;;;;;;;0.00;0.00;;;;;20.93;42.33;100591.94;5076214;28;45613;-72
2023/01/15 09:30:24;;;;;;;;;1.00;0.00;;;;;20.93;42.62;100591.94;5076233;27;45392;-72
2023/01/15 09:32:50;;;;;;;;;0.00;0.00;;;;;20.94;42.30;100598.91;5075660;28;47241;-73
2023/01/15 09:35:15;;;;;;;;;0.00;0.00;;;;;20.95;42.42;100600.53;5076089;28;45374;-72
2023/01/15 09:37:40;;;;;;;;;1.33;0.00;;;;;20.83;42.27;100576.34;5076151;28;45397;-72
2023/01/15 09:40:08;;;;;;;;;0.00;0.00;;;;;20.95;42.50;100597.88;5076019;28;45543;-72
2023/01/15 09:42:46;;;;;;;;;0.00;0.00;;;;;20.98;42.49;100599.34;5075804;27;47201;-72
2023/01/15 09:45:30;;;;;;;;;0.00;0.00;;;;;20.96;42.33;100595.06;5075875;28;45392;-72
2023/01/15 09:48:18;;;;;;;;;0.67;0.00;;;;;20.98;42.68;100592.22;5075720;28;45264;-72
2023/01/15 09:51:19;;;;;;;;;0.00;0.00;;;;;20.99;42.85;100585.13;5075743;28;45573;-73
2023/01/15 09:54:00;;;;;;;;;0.00;0.00;;;;;20.99;42.61;100593.06;5012847;28;47086;-72
2023/01/15 09:56:28;;;;;;;;;0.67;0.67;;;;;20.99;42.71;100578.03;5012908;28;45373;-72
2023/01/15 09:58:56;;;;;;;;;0.00;0.00;;;;;20.98;42.38;100586.13;5013205;28;45365;-72
2023/01/15 10:01:29;;;;;;;;;0.00;0.00;;;;;20.99;42.61;100569.25;5014635;28;45518;-72
2023/01/15 10:04:00;;;;;;;;;0.00;0.00;;;;;21.00;42.97;100579.66;5016451;28;45919;-72
2023/01/15 10:06:39;;;;;;;;;1.00;0.00;;;;;21.00;43.02;100571.72;5016650;28;45463;-72
2023/01/15 10:09:20;;;;;;;;;0.00;0.00;;;;;21.02;43.02;100576.88;5016713;28;45479;-72
2023/01/15 10:15:18;;;;;;;;;1.00;1.00;;;;;21.04;42.83;100583.63;5016288;28;45765;-72
2023/01/15 10:17:48;;;;;;;;;2.00;0.00;;;;;21.06;42.78;100588.72;4996605;28;45414;-73
2023/01/15 10:20:37;;;;;;;;;1.00;1.00;;;;;21.06;43.10;100589.53;4996310;28;45400;-72
2023/01/15 10:23:21;;;;;;;;;1.00;0.00;;;;;21.08;43.25;100594.66;4976871;28;46051;-72
2023/01/15 10:25:54;;;;;;;;;3.00;1.00;;;;;21.08;43.00;100597.28;4976409;28;45458;-72
2023/01/15 10:28:29;;;;;;;;;1.33;0.00;;;;;21.10;43.52;100597.97;4976712;28;45364;-72
2023/01/15 10:31:01;;;;;;;;;0.00;0.00;;;;;21.10;43.22;100597.13;4962960;28;45213;-73
2023/01/15 10:33:49;;;;;;;;;1.00;0.00;;;;;21.12;43.46;100592.47;4957446;28;45473;-73
2023/01/15 10:36:21;;;;;;;;;0.00;0.00;;;;;21.13;43.45;100610.00;4957164;28;46381;-72
2023/01/15 10:39:02;;;;;;;;;2.00;0.67;;;;;21.05;43.23;100587.09;4956964;28;45412;-72
2023/01/15 10:41:54;;;;;;;;;0.00;0.00;;;;;21.13;43.18;100610.81;4957198;28;45525;-72
2023/01/15 10:44:27;;;;;;;;;1.00;1.00;;;;;21.14;43.79;100608.97;4953016;28;45356;-72
2023/01/15 10:46:57;;;;;;;;;0.00;0.00;;;;;21.15;43.42;100605.34;4956882;28;45451;-72
2023/01/15 10:49:28;;;;;;;;;0.00;0.00;;;;;21.15;43.43;100615.94;4956852;28;45323;-73
2023/01/15 10:51:57;;;;;;;;;0.00;0.00;;;;;21.04;43.72;100622.47;4956875;28;45327;-73
2023/01/15 10:54:34;;;;;;;;;3.33;1.00;;;;;21.14;43.45;100627.50;4982932;28;45513;-73
2023/01/15 10:57:04;;;;;;;;;0.00;0.00;;;;;21.15;43.18;100626.50;5035013;28;47063;-72
2023/01/15 10:59:49;;;;;;;;;1.00;0.00;;;;;21.15;43.67;100627.34;5046605;27;45340;-73
2023/01/15 11:02:48;;;;;;;;;1.00;0.00;;;;;21.15;43.79;100618.56;5078338;28;45377;-73
2023/01/15 11:05:16;;;;;;;;;0.00;0.00;;;;;21.16;43.58;100617.56;5078108;28;45399;-72
2023/01/15 11:07:48;;;;;;;;;3.00;0.00;;;;;21.17;43.51;100622.69;5077621;28;45350;-73
2023/01/15 11:10:17;;;;;;;;;1.00;1.00;;;;;21.06;43.27;100610.72;5078041;28;45388;-71
2023/01/15 11:21:24;;;;;;;;;1.33;0.33;;;;;21.16;43.28;100602.50;5077874;28;45353;-73
2023/01/15 11:23:54;;;;;;;;;0.00;0.00;;;;;21.18;43.32;100611.09;5077838;27;45359;-71
2023/01/15 11:26:24;;;;;;;;;1.33;0.00;;;;;21.12;43.61;100592.47;5078153;28;45288;-72
2023/01/15 11:28:49;;;;;;;;;1.00;0.00;;;;;21.18;43.23;100594.41;5077697;27;45697;-73
2023/01/15 11:31:15;;;;;;;;;1.00;0.00;;;;;21.13;43.19;100563.19;5077740;28;45428;-72
2023/01/15 11:34:17;;;;;;;;;1.00;0.00;;;;;21.18;43.15;100581.97;5077916;28;45324;-72
2023/01/15 11:36:42;;;;;;;;;0.00;0.00;;;;;21.18;43.63;100594.41;5067271;27;45561;-72
2023/01/15 11:39:26;;;;;;;;;1.33;0.00;;;;;21.18;43.16;100589.91;5077387;28;47198;-73
2023/01/15 11:53:16;;;;;;;;;0.00;0.00;;;;;21.10;43.64;100576.78;5077345;28;45389;-72
2023/01/15 11:55:51;;;;;;;;;0.00;0.00;;;;;21.16;43.60;100578.69;5077017;27;45385;-73
2023/01/15 11:58:16;;;;;;;;;0.00;0.00;;;;;21.16;43.25;100577.88;5077131;28;45273;-73
2023/01/15 12:00:44;;;;;;;;;1.33;0.00;;;;;21.17;43.36;100571.59;5077252;27;45408;-73
2023/01/15 12:03:18;;;;;;;;;0.00;0.00;;;;;21.17;43.67;100563.66;5077067;28;45419;-72
2023/01/15 12:05:55;;;;;;;;;1.00;0.00;;;;;21.17;43.61;100567.13;5077292;28;45325;-73
2023/01/15 12:08:57;;;;;;;;;2.00;0.00;;;;;21.19;43.24;100572.22;5077468;28;45402;-73
2023/01/15 12:11:43;;;;;;;;;0.00;0.00;;;;;21.20;43.47;100573.06;5076706;28;47109;-72
2023/01/15 12:14:38;;;;;;;;;1.00;0.00;;;;;21.19;43.40;100559.00;5077001;28;45335;-73
2023/01/15 12:17:36;;;;;;;;;0.00;0.00;;;;;21.18;43.11;100550.22;5076814;28;45396;-72
2023/01/15 12:20:07;;;;;;;;;1.00;0.00;;;;;21.21;43.32;100542.97;5077520;28;45335;-72
2023/01/15 12:23:00;;;;;;;;;0.00;0.00;;;;;21.20;43.52;100541.31;5076940;28;45427;-73
2023/01/15 12:26:03;;;;;;;;;1.00;0.00;;;;;21.20;43.40;100536.00;5076542;28;45300;-72
2023/01/15 12:28:36;;;;;;;;;0.00;0.00;;;;;21.20;43.17;100528.06;5077079;28;45324;-73